Time;durP1;ratioP1;P1;durP2;ratioP2;P2;SDS_P1;SDS_P2;PMS_P1;PMS_P2;Temp;Humidity;BMP_temperature;BMP_pressure;BME280_temperature;BME280_humidity;BME280_pressure;Samples;Min_cycle;Max_cycle;Signal;HPM_P1;HPM_P2
2022/05/17 00:00:02;;;;;;;;;;;;;;;23.66;51.54;101045.91;4964580;28;19944;-81
2022/05/17 00:02:57;;;;;;;;;;;;;;;23.75;50.25;101043.53;4954194;28;19913;-79
2022/05/17 00:05:43;;;;;;;;;;;;;;;23.69;50.06;101047.88;4960449;28;20279;-81
2022/05/17 00:08:28;;;;;;;;;;;;;;;23.72;50.23;101046.31;4951677;28;20311;-79
2022/05/17 00:11:13;;;;;;;;;;;;;;;23.85;50.42;101048.28;4951530;28;19914;-79
2022/05/17 00:13:58;;;;;;;;;;;;;;;23.92;50.37;101046.69;4954892;28;19914;-79
2022/05/17 00:16:44;;;;;;;;;;;;;;;24.07;50.09;101045.50;4968304;28;19919;-77
2022/05/17 00:19:29;;;;;;;;;;;;;;;24.18;49.87;101049.06;4945909;28;19918;-79
2022/05/17 00:22:13;;;;;;;;;;;;;;;24.12;49.59;101045.09;4959805;28;20441;-81
2022/05/17 00:24:57;;;;;;;;;;;;;;;23.83;50.25;101038.75;4948504;28;20309;-80
2022/05/17 00:27:42;;;;;;;;;;;;;;;23.85;50.21;101041.94;4974680;28;19929;-80
2022/05/17 00:30:27;;;;;;;;;;;;;;;23.86;49.99;101037.97;4963725;28;19918;-80
2022/05/17 00:33:12;;;;;;;;;;;;;;;23.75;50.34;101037.16;4963078;28;20391;-80
2022/05/17 00:35:57;;;;;;;;;;;;;;;23.72;50.09;101032.41;4957156;28;20382;-81
2022/05/17 00:38:42;;;;;;;;;;;;;;;23.55;50.93;101039.53;4972683;28;19913;-80
2022/05/17 00:41:26;;;;;;;;;;;;;;;23.56;51.04;101038.38;4958516;28;20383;-79
2022/05/17 00:47:28;;;;;;;;;;;;;;;23.65;51.10;101038.75;4961778;28;19913;-78
2022/05/17 00:50:30;;;;;;;;;;;;;;;23.65;50.90;101043.50;4954937;28;19914;-79
2022/05/17 00:53:24;;;;;;;;;;;;;;;23.62;50.70;101036.00;4957075;28;19914;-79
2022/05/17 00:56:18;;;;;;;;;;;;;;;23.70;50.84;101041.13;4975067;28;19914;-79
2022/05/17 00:59:04;;;;;;;;;;;;;;;23.61;50.72;101042.72;4963454;28;19914;-80
2022/05/17 01:01:50;;;;;;;;;;;;;;;23.53;51.36;101030.00;4954693;28;19914;-80
2022/05/17 01:04:35;;;;;;;;;;;;;;;23.19;51.80;101038.66;4958323;28;19914;-79
2022/05/17 01:07:23;;;;;;;;;;;;;;;23.08;52.01;101031.50;4964924;28;19915;-80
2022/05/17 01:10:08;;;;;;;;;;;;;;;22.96;52.35;101024.31;4962329;28;19918;-81
2022/05/17 01:15:57;;;;;;;;;;;;;;;23.01;52.30;101021.16;4950999;28;19915;-75
2022/05/17 01:18:42;;;;;;;;;;;;;;;23.15;52.52;101025.97;4945045;28;19918;-75
2022/05/17 01:21:28;;;;;;;;;;;;;;;22.92;52.27;101026.28;4937568;29;19918;-74
2022/05/17 01:24:14;;;;;;;;;;;;;;;22.80;52.77;101027.47;4949018;29;19918;-75
2022/05/17 01:27:03;;;;;;;;;;;;;;;22.68;53.17;101026.97;4956820;28;19914;-74
2022/05/17 01:29:49;;;;;;;;;;;;;;;22.79;52.55;101022.28;4951735;28;19915;-74
2022/05/17 01:32:34;;;;;;;;;;;;;;;22.98;52.09;101022.75;4955085;28;19918;-74
2022/05/17 01:35:19;;;;;;;;;;;;;;;23.16;52.49;101027.56;4939603;28;19918;-74
2022/05/17 01:38:04;;;;;;;;;;;;;;;23.28;52.02;101035.50;4946242;28;19918;-73
2022/05/17 01:40:50;;;;;;;;;;;;;;;23.35;51.61;101025.22;4947369;29;19919;-74
2022/05/17 01:43:34;;;;;;;;;;;;;;;23.37;51.81;101033.13;4946200;28;19947;-75
2022/05/17 01:46:19;;;;;;;;;;;;;;;23.48;51.44;101031.19;4936995;29;19922;-75
2022/05/17 01:49:04;;;;;;;;;;;;;;;23.39;51.92;101033.53;4936075;28;20384;-75
2022/05/17 01:51:49;;;;;;;;;;;;;;;23.36;51.65;101026.00;4940829;29;20253;-75
2022/05/17 01:54:33;;;;;;;;;;;;;;;23.34;51.55;101025.59;4938141;28;19992;-74
2022/05/17 01:57:17;;;;;;;;;;;;;;;22.95;52.17;101028.31;4941924;28;19914;-75
2022/05/17 02:00:03;;;;;;;;;;;;;;;22.65;53.45;101025.00;4949058;28;19917;-75
2022/05/17 02:02:50;;;;;;;;;;;;;;;22.52;53.55;101030.06;4955933;28;19913;-75
2022/05/17 02:05:35;;;;;;;;;;;;;;;22.43;53.64;101024.88;4945124;28;20297;-75
2022/05/17 02:08:20;;;;;;;;;;;;;;;22.28;54.66;101025.19;4948007;29;19918;-74
2022/05/17 02:11:04;;;;;;;;;;;;;;;22.39;54.36;101028.81;4937306;29;19915;-74
2022/05/17 02:13:49;;;;;;;;;;;;;;;22.63;54.01;101019.03;4950896;28;19914;-74
2022/05/17 02:16:35;;;;;;;;;;;;;;;22.72;53.44;101023.06;4937832;28;19915;-74
2022/05/17 02:19:20;;;;;;;;;;;;;;;22.78;53.33;101015.94;4949293;29;19914;-75
2022/05/17 02:22:05;;;;;;;;;;;;;;;22.52;54.34;101017.00;4947558;28;19914;-75
2022/05/17 02:24:49;;;;;;;;;;;;;;;22.60;54.04;101009.53;4945930;28;19914;-74
2022/05/17 02:27:34;;;;;;;;;;;;;;;22.70;53.57;101017.09;4940816;29;19915;-74
2022/05/17 02:30:19;;;;;;;;;;;;;;;22.75;53.33;101016.75;4946234;29;19919;-75
2022/05/17 02:33:06;;;;;;;;;;;;;;;22.72;53.59;101014.72;4945184;29;19918;-75
2022/05/17 02:35:51;;;;;;;;;;;;;;;22.71;53.42;101018.69;4937962;29;19914;-75
2022/05/17 02:38:36;;;;;;;;;;;;;;;22.72;53.52;101014.72;4945015;29;20292;-74
2022/05/17 02:41:20;;;;;;;;;;;;;;;22.69;53.37;101009.94;4941090;29;20001;-76
2022/05/17 02:44:05;;;;;;;;;;;;;;;22.69;53.51;101004.41;4937913;29;19915;-75
2022/05/17 02:46:49;;;;;;;;;;;;;;;22.56;53.84;101009.50;4944430;28;19919;-75
2022/05/17 02:49:34;;;;;;;;;;;;;;;22.43;54.34;101004.69;4937213;29;19915;-74
2022/05/17 02:52:19;;;;;;;;;;;;;;;22.23;54.90;101011.69;4947304;28;19919;-75
2022/05/17 02:55:03;;;;;;;;;;;;;;;22.08;54.52;101010.81;4944116;29;19914;-74
2022/05/17 02:57:48;;;;;;;;;;;;;;;22.04;54.82;101013.56;4945774;28;19914;-74
2022/05/17 03:00:33;;;;;;;;;;;;;;;21.80;55.45;101010.56;4950757;28;19918;-74
2022/05/17 03:03:17;;;;;;;;;;;;;;;22.00;55.36;101012.72;4959426;28;19914;-74
2022/05/17 03:06:02;;;;;;;;;;;;;;;22.04;54.85;101015.53;4957374;28;20322;-74
2022/05/17 03:08:46;;;;;;;;;;;;;;;21.92;55.69;101013.84;4946944;28;19918;-73
2022/05/17 03:11:30;;;;;;;;;;;;;;;21.94;55.18;101011.50;4951920;28;19915;-73
2022/05/17 03:14:18;;;;;;;;;;;;;;;21.97;55.31;101015.50;4951832;28;19915;-73
2022/05/17 03:17:13;;;;;;;;;;;;;;;21.92;55.35;101011.06;4941012;29;20109;-74
2022/05/17 03:19:57;;;;;;;;;;;;;;;22.08;55.38;101014.38;4948506;28;19922;-73
2022/05/17 03:22:42;;;;;;;;;;;;;;;22.08;55.00;101013.59;4946249;28;20381;-73
2022/05/17 03:25:26;;;;;;;;;;;;;;;21.96;55.78;101025.75;4957787;28;20296;-74
2022/05/17 03:28:11;;;;;;;;;;;;;;;21.84;56.34;101016.97;4934524;29;20389;-74
2022/05/17 03:30:56;;;;;;;;;;;;;;;21.74;56.29;101013.69;4953550;28;19918;-74
2022/05/17 03:33:41;;;;;;;;;;;;;;;21.63;56.51;101009.28;4947940;28;19915;-75
2022/05/17 03:36:25;;;;;;;;;;;;;;;21.61;56.43;101001.34;4942804;28;19914;-75
2022/05/17 03:39:10;;;;;;;;;;;;;;;21.72;56.91;101006.97;4944776;28;20265;-75
2022/05/17 03:41:55;;;;;;;;;;;;;;;21.59;57.03;101000.13;4944055;28;19918;-74
2022/05/17 03:44:39;;;;;;;;;;;;;;;21.54;57.35;101003.25;4959303;28;20289;-74
2022/05/17 03:47:24;;;;;;;;;;;;;;;21.47;57.43;101000.44;4950710;28;20333;-74
2022/05/17 03:50:09;;;;;;;;;;;;;;;21.44;57.56;101003.94;4949966;28;19915;-74
2022/05/17 03:52:54;;;;;;;;;;;;;;;21.63;57.00;101000.97;4944967;28;20293;-74
2022/05/17 03:55:39;;;;;;;;;;;;;;;21.58;57.20;101004.88;4958807;28;20309;-74
2022/05/17 03:58:23;;;;;;;;;;;;;;;21.74;56.64;100993.53;4949119;29;19914;-74
2022/05/17 04:01:08;;;;;;;;;;;;;;;21.68;56.64;100995.06;4954457;28;19918;-74
2022/05/17 04:03:53;;;;;;;;;;;;;;;21.58;56.90;100993.03;4949964;28;19915;-75
2022/05/17 04:06:38;;;;;;;;;;;;;;;21.55;56.54;100986.25;4948555;28;19914;-75
2022/05/17 04:09:22;;;;;;;;;;;;;;;21.49;57.06;100995.28;4943258;29;20357;-76
2022/05/17 04:12:07;;;;;;;;;;;;;;;21.45;57.29;100992.50;4942523;29;19915;-74
2022/05/17 04:14:56;;;;;;;;;;;;;;;21.37;58.09;100990.88;4953988;28;19914;-75
2022/05/17 04:17:40;;;;;;;;;;;;;;;21.39;57.86;100996.00;4961014;28;19918;-75
2022/05/17 04:20:26;;;;;;;;;;;;;;;21.63;57.26;100987.94;4947733;28;19926;-75
2022/05/17 04:23:11;;;;;;;;;;;;;;;21.63;56.59;100993.47;4954669;28;19914;-75
2022/05/17 04:25:57;;;;;;;;;;;;;;;21.48;57.74;100990.97;4958538;28;19922;-75
2022/05/17 04:28:41;;;;;;;;;;;;;;;21.47;57.73;100990.16;4950570;28;19914;-74
2022/05/17 04:31:26;;;;;;;;;;;;;;;21.44;57.07;100990.09;4971569;28;19914;-75
2022/05/17 04:34:12;;;;;;;;;;;;;;;21.37;57.61;100988.09;4939123;29;19915;-75
2022/05/17 04:36:57;;;;;;;;;;;;;;;21.24;57.94;100987.56;4940374;29;19918;-73
2022/05/17 04:39:42;;;;;;;;;;;;;;;21.28;58.27;100993.91;4940293;29;19915;-74
2022/05/17 04:42:27;;;;;;;;;;;;;;;21.30;58.21;100997.13;4973649;28;19918;-74
2022/05/17 04:45:13;;;;;;;;;;;;;;;21.27;58.27;100986.81;4946166;28;19907;-73
2022/05/17 04:47:58;;;;;;;;;;;;;;;21.40;57.83;100990.09;4940808;29;19915;-73
2022/05/17 04:50:42;;;;;;;;;;;;;;;21.42;57.97;100990.50;4947092;28;19915;-72
2022/05/17 04:53:28;;;;;;;;;;;;;;;21.48;57.68;100996.50;4948550;28;19918;-73
2022/05/17 04:56:12;;;;;;;;;;;;;;;21.82;56.91;100995.19;4947803;28;19914;-73
2022/05/17 04:58:58;;;;;;;;;;;;;;;22.07;56.43;100996.16;4943520;29;20447;-73
2022/05/17 05:01:42;;;;;;;;;;;;;;;22.27;55.46;100993.13;4945738;29;19918;-73
2022/05/17 05:04:27;;;;;;;;;;;;;;;22.48;54.75;100982.13;4945546;28;20361;-73
2022/05/17 05:07:11;;;;;;;;;;;;;;;22.68;54.05;100986.19;4947624;28;20304;-73
2022/05/17 05:09:56;;;;;;;;;;;;;;;22.79;53.58;100997.34;4944805;28;19914;-73
2022/05/17 05:12:40;;;;;;;;;;;;;;;22.86;53.21;100995.38;4944329;28;19914;-74
2022/05/17 05:15:25;;;;;;;;;;;;;;;22.88;52.22;100998.56;4950691;28;20296;-73
2022/05/17 05:18:09;;;;;;;;;;;;;;;22.80;52.86;101004.47;4957024;28;19914;-74
2022/05/17 05:21:11;;;;;;;;;;;;;;;22.72;53.54;101005.63;4954214;29;19919;-74
2022/05/17 05:23:56;;;;;;;;;;;;;;;22.93;52.95;101012.03;4953505;28;19914;-74
2022/05/17 05:26:40;;;;;;;;;;;;;;;23.11;52.47;101014.84;4954229;29;19914;-74
2022/05/17 05:29:26;;;;;;;;;;;;;;;23.17;51.88;101013.28;4953459;28;20373;-73
2022/05/17 05:32:10;;;;;;;;;;;;;;;23.37;51.04;100999.81;4949485;29;19915;-74
2022/05/17 05:34:54;;;;;;;;;;;;;;;23.48;50.76;101005.41;4957800;28;20440;-74
2022/05/17 05:37:39;;;;;;;;;;;;;;;23.60;50.36;101003.06;4942652;29;19914;-74
2022/05/17 05:40:23;;;;;;;;;;;;;;;23.65;50.06;100999.88;4938629;29;19919;-74
2022/05/17 05:43:08;;;;;;;;;;;;;;;23.65;49.68;100994.31;4957663;28;19914;-74
2022/05/17 05:45:52;;;;;;;;;;;;;;;23.62;49.86;101003.44;4955803;28;19915;-73
2022/05/17 05:48:37;;;;;;;;;;;;;;;23.64;49.65;100998.28;4952815;29;20385;-74
2022/05/17 05:51:24;;;;;;;;;;;;;;;23.70;49.38;101004.25;4958006;28;20369;-73
2022/05/17 05:54:09;;;;;;;;;;;;;;;23.70;49.26;101007.81;4945408;28;19914;-74
2022/05/17 05:56:57;;;;;;;;;;;;;;;23.72;49.03;101010.97;4936602;29;19918;-74
2022/05/17 05:59:42;;;;;;;;;;;;;;;23.83;48.88;101008.97;4958358;28;20296;-74
2022/05/17 06:02:27;;;;;;;;;;;;;;;23.90;48.46;101010.16;4956729;28;19923;-73
2022/05/17 06:05:11;;;;;;;;;;;;;;;23.87;48.32;101007.00;4953730;28;20321;-73
2022/05/17 06:07:56;;;;;;;;;;;;;;;23.85;48.58;101008.59;4952174;28;19922;-82
2022/05/17 06:10:41;;;;;;;;;;;;;;;23.84;48.71;101007.78;4952117;28;20301;-82
2022/05/17 06:13:26;;;;;;;;;;;;;;;23.92;48.66;101002.25;4948054;28;19915;-81
2022/05/17 06:16:10;;;;;;;;;;;;;;;23.84;48.68;101010.56;4940758;28;19914;-81
2022/05/17 06:18:55;;;;;;;;;;;;;;;23.84;48.87;101013.34;4949439;28;19915;-81
2022/05/17 06:21:40;;;;;;;;;;;;;;;23.94;49.03;101003.41;4950488;29;19918;-82
2022/05/17 06:24:25;;;;;;;;;;;;;;;23.94;49.30;101011.75;4938669;28;19915;-81
2022/05/17 06:27:10;;;;;;;;;;;;;;;23.98;49.52;101011.75;4967193;28;19914;-82
2022/05/17 06:29:54;;;;;;;;;;;;;;;24.04;49.22;101010.16;4977445;28;20392;-81
2022/05/17 06:32:39;;;;;;;;;;;;;;;24.08;49.05;100999.81;4975989;28;20300;-81
2022/05/17 06:35:24;;;;;;;;;;;;;;;24.06;48.78;101002.22;4979692;28;19933;-81
2022/05/17 06:38:08;;;;;;;;;;;;;;;24.07;47.55;100998.25;4944044;28;20373;-81
2022/05/17 06:40:53;;;;;;;;;;;;;;;24.08;47.12;101003.38;4937053;28;20550;-81
2022/05/17 06:43:38;;;;;;;;;;;;;;;24.09;46.99;100999.41;4949974;28;19915;-81
2022/05/17 06:46:22;;;;;;;;;;;;;;;24.10;46.76;100998.22;4962848;28;19914;-81
2022/05/17 06:49:08;;;;;;;;;;;;;;;24.12;46.54;101006.19;4937164;28;19915;-82
2022/05/17 06:51:53;;;;;;;;;;;;;;;24.13;46.74;101007.75;4941411;29;19915;-81
2022/05/17 06:54:40;;;;;;;;;;;;;;;24.11;46.29;101004.59;4937752;29;19914;-81
2022/05/17 06:57:25;;;;;;;;;;;;;;;24.14;46.42;101007.34;4945848;28;19918;-81
2022/05/17 07:00:11;;;;;;;;;;;;;;;24.19;46.17;100995.84;4964480;28;19914;-82
2022/05/17 07:02:56;;;;;;;;;;;;;;;24.21;46.31;100995.47;4947523;28;19914;-81
2022/05/17 07:05:40;;;;;;;;;;;;;;;24.21;47.15;100998.25;4949240;28;19915;-88
2022/05/17 07:08:26;;;;;;;;;;;;;;;24.28;47.92;100993.44;4955505;28;20024;-88
2022/05/17 07:14:15;;;;;;;;;;;;;;;26.46;41.73;100990.72;4941822;28;20396;-78
2022/05/17 07:17:00;;;;;;;;;;;;;;;27.32;39.18;100985.56;4940354;29;19914;-80
2022/05/17 07:19:45;;;;;;;;;;;;;;;27.72;37.46;100978.91;4914022;29;20401;-76
2022/05/17 07:22:30;;;;;;;;;;;;;;;29.31;34.56;100989.66;4909514;29;19919;-78
2022/05/17 07:25:14;;;;;;;;;;;;;;;27.45;37.94;100992.13;4920129;29;19915;-79
2022/05/17 07:28:00;;;;;;;;;;;;;;;26.69;39.71;100999.97;4926854;29;19926;-75
2022/05/17 07:30:46;;;;;;;;;;;;;;;26.22;40.72;100996.16;4920081;29;19923;-77
2022/05/17 07:33:30;;;;;;;;;;;;;;;25.89;41.62;100999.66;4931455;29;19915;-77
2022/05/17 07:36:14;;;;;;;;;;;;;;;25.65;41.65;100997.91;4920741;28;19941;-80
2022/05/17 07:39:00;;;;;;;;;;;;;;;25.52;42.54;100997.56;4909366;29;20406;-79
2022/05/17 07:41:44;;;;;;;;;;;;;;;25.40;42.44;100995.25;4917502;29;19926;-79
2022/05/17 07:44:30;;;;;;;;;;;;;;;25.31;42.52;100992.16;4913188;29;19915;-79
2022/05/17 07:47:15;;;;;;;;;;;;;;;25.26;42.70;100987.03;4937526;28;19915;-79
2022/05/17 07:50:00;;;;;;;;;;;;;;;25.18;42.67;100993.84;4920289;29;19918;-80
2022/05/17 07:52:45;;;;;;;;;;;;;;;25.14;43.22;100993.88;4919523;29;19923;-79
2022/05/17 07:55:29;;;;;;;;;;;;;;;25.11;42.71;100986.31;4919354;29;19915;-79
2022/05/17 07:58:14;;;;;;;;;;;;;;;25.12;43.33;100991.50;4916444;28;19915;-78
2022/05/17 08:00:59;;;;;;;;;;;;;;;25.11;43.21;100994.69;4928299;29;19919;-80
2022/05/17 08:03:43;;;;;;;;;;;;;;;25.12;43.16;100991.50;4934138;29;19915;-78
2022/05/17 08:06:28;;;;;;;;;;;;;;;25.16;43.33;100997.03;4916250;29;20382;-76
2022/05/17 08:09:12;;;;;;;;;;;;;;;25.17;43.14;100993.06;4924307;29;19915;-76
2022/05/17 08:11:57;;;;;;;;;;;;;;;25.18;42.80;100994.66;4933823;29;19915;-75
2022/05/17 08:14:41;;;;;;;;;;;;;;;25.19;42.48;101001.81;4932566;29;19918;-76
2022/05/17 08:17:26;;;;;;;;;;;;;;;25.21;42.90;100987.44;4930587;29;19915;-76
2022/05/17 08:20:11;;;;;;;;;;;;;;;25.22;42.83;100995.41;4929589;29;19915;-76
2022/05/17 08:22:56;;;;;;;;;;;;;;;25.25;42.69;100993.78;4906413;29;20300;-76
2022/05/17 08:28:44;;;;;;;;;;;;;;;25.28;42.83;100995.78;4931384;29;20377;-78
2022/05/17 08:31:28;;;;;;;;;;;;;;;25.30;42.78;100996.13;4918688;29;20301;-76
2022/05/17 08:34:13;;;;;;;;;;;;;;;25.30;42.89;100993.34;4916408;29;20381;-76
2022/05/17 08:36:57;;;;;;;;;;;;;;;25.35;42.49;100993.72;4934104;29;19915;-76
2022/05/17 08:39:41;;;;;;;;;;;;;;;25.39;42.59;100994.50;4916164;29;19915;-75
2022/05/17 08:42:32;;;;;;;;;;;;;;;25.38;42.13;100990.13;4929006;29;19919;-75
2022/05/17 08:45:21;;;;;;;;;;;;;;;25.42;42.35;100993.66;4920886;29;20297;-77
2022/05/17 08:48:09;;;;;;;;;;;;;;;25.46;42.19;100990.84;4916147;29;19914;-76
2022/05/17 08:50:53;;;;;;;;;;;;;;;25.47;42.51;100989.66;4910580;29;19915;-75
2022/05/17 08:53:39;;;;;;;;;;;;;;;25.47;41.66;100986.88;4897955;29;20286;-75
2022/05/17 08:56:25;;;;;;;;;;;;;;;25.50;41.40;100988.81;4897688;29;20370;-76
2022/05/17 08:59:12;;;;;;;;;;;;;;;25.52;41.89;100984.44;4899257;29;19915;-75
2022/05/17 09:02:32;;;;;;;;;;;;;;;25.55;42.18;100988.41;4925197;29;20408;-75
2022/05/17 09:05:26;;;;;;;;;;;;;;;25.57;41.41;100991.59;4916607;29;19915;-76
2022/05/17 09:08:27;;;;;;;;;;;;;;;25.58;41.52;100998.75;4927241;29;19918;-75
2022/05/17 09:11:12;;;;;;;;;;;;;;;25.61;41.57;100989.56;4931064;29;19915;-75
2022/05/17 09:14:12;;;;;;;;;;;;;;;25.63;41.35;100983.59;4915834;29;19915;-74
2022/05/17 09:17:04;;;;;;;;;;;;;;;25.67;41.80;100984.34;4918520;29;19919;-75
2022/05/17 09:19:51;;;;;;;;;;;;;;;25.74;41.57;100987.06;4913496;29;20317;-76
2022/05/17 09:22:36;;;;;;;;;;;;;;;25.74;41.78;100987.88;4923122;29;19919;-76
2022/05/17 09:25:26;;;;;;;;;;;;;;;25.77;41.66;100986.22;4942635;28;20147;-75
2022/05/17 09:28:11;;;;;;;;;;;;;;;25.81;41.54;100981.41;4920803;29;19919;-75
2022/05/17 09:31:17;;;;;;;;;;;;;;;25.85;41.28;100984.97;4932762;29;19919;-76
2022/05/17 09:34:06;;;;;;;;;;;;;;;25.86;41.22;100975.41;4930750;29;19915;-76
2022/05/17 09:36:52;;;;;;;;;;;;;;;25.91;41.55;100977.72;4915489;29;19919;-75
2022/05/17 09:39:37;;;;;;;;;;;;;;;25.97;41.15;100973.28;4932687;29;19915;-77
2022/05/17 09:42:25;;;;;;;;;;;;;;;26.01;41.29;100984.44;4911160;29;19919;-76
2022/05/17 09:45:16;;;;;;;;;;;;;;;26.07;40.86;100982.75;4909842;29;19915;-75
2022/05/17 09:48:04;;;;;;;;;;;;;;;26.06;41.39;100983.97;4911102;29;19923;-75
2022/05/17 09:53:52;;;;;;;;;;;;;;;26.13;40.97;100981.88;4933416;29;19915;-75
2022/05/17 09:56:37;;;;;;;;;;;;;;;26.22;40.86;100981.41;4915800;29;20377;-74
2022/05/17 09:59:23;;;;;;;;;;;;;;;26.40;40.04;100982.00;4911796;29;20007;-75
2022/05/17 10:02:28;;;;;;;;;;;;;;;26.35;40.32;100983.28;4914411;29;19918;-75
2022/05/17 10:05:21;;;;;;;;;;;;;;;26.47;40.31;100984.69;4928146;29;19919;-75
2022/05/17 10:08:23;;;;;;;;;;;;;;;26.48;39.69;100979.91;4928793;29;20385;-75
2022/05/17 10:11:20;;;;;;;;;;;;;;;26.74;38.03;100968.03;4914233;29;19933;-77
2022/05/17 10:14:04;;;;;;;;;;;;;;;26.64;39.44;100963.38;4913850;29;19923;-77
2022/05/17 10:16:52;;;;;;;;;;;;;;;26.66;39.99;100972.13;4931889;29;19915;-79
2022/05/17 10:19:44;;;;;;;;;;;;;;;26.74;39.59;100963.22;4928017;29;19915;-76
2022/05/17 10:22:32;;;;;;;;;;;;;;;26.72;40.00;100965.63;4922260;29;19931;-76
2022/05/17 10:25:34;;;;;;;;;;;;;;;26.77;39.81;100956.00;4923885;29;20374;-76
2022/05/17 10:28:37;;;;;;;;;;;;;;;26.89;39.19;100954.69;4912701;29;19919;-76
2022/05/17 10:31:34;;;;;;;;;;;;;;;26.83;40.19;100957.91;4931203;29;19919;-77
2022/05/17 10:34:26;;;;;;;;;;;;;;;27.13;37.54;100942.34;4916641;29;19915;-75
2022/05/17 10:37:19;;;;;;;;;;;;;;;27.04;39.51;100940.09;4905161;29;19915;-76
2022/05/17 10:40:16;;;;;;;;;;;;;;;27.03;39.07;100944.09;4909167;29;20386;-75
2022/05/17 10:43:03;;;;;;;;;;;;;;;27.49;35.03;100940.59;4920039;29;20305;-77
2022/05/17 10:45:55;;;;;;;;;;;;;;;27.52;35.71;100925.78;4925264;29;19918;-75
2022/05/17 10:49:03;;;;;;;;;;;;;;;27.74;35.23;100928.16;4911234;29;19915;-76
2022/05/17 10:52:04;;;;;;;;;;;;;;;27.55;37.58;100933.28;4923690;29;20397;-76
2022/05/17 10:54:56;;;;;;;;;;;;;;;27.60;35.74;100927.22;4911022;29;19915;-76
2022/05/17 10:57:53;;;;;;;;;;;;;;;28.29;33.48;100927.53;4915092;29;19922;-75
2022/05/17 11:00:40;;;;;;;;;;;;;;;28.55;33.72;100923.00;4930092;29;19919;-74
2022/05/17 11:03:34;;;;;;;;;;;;;;;28.25;36.00;100921.19;4907073;29;19919;-76
2022/05/17 11:06:22;;;;;;;;;;;;;;;27.98;37.09;100919.34;4906288;29;19915;-75
2022/05/17 11:09:26;;;;;;;;;;;;;;;27.98;36.41;100910.16;4910150;29;19915;-75
2022/05/17 11:12:15;;;;;;;;;;;;;;;28.21;35.38;100909.31;4910207;29;19916;-78
2022/05/17 11:15:21;;;;;;;;;;;;;;;28.09;37.47;100903.09;4912486;29;19919;-76
2022/05/17 11:18:17;;;;;;;;;;;;;;;28.02;37.41;100894.88;4912241;29;19915;-76
2022/05/17 11:21:04;;;;;;;;;;;;;;;28.14;36.13;100895.47;4911658;29;19919;-77
2022/05/17 11:23:55;;;;;;;;;;;;;;;28.34;34.73;100899.81;4916954;29;20078;-75
2022/05/17 11:26:55;;;;;;;;;;;;;;;28.52;34.58;100890.25;4917252;29;19915;-75
2022/05/17 11:29:58;;;;;;;;;;;;;;;28.41;33.47;100884.91;4924015;29;19919;-75
2022/05/17 11:33:03;;;;;;;;;;;;;;;28.48;34.49;100879.16;4928490;29;19915;-75
2022/05/17 11:35:54;;;;;;;;;;;;;;;28.78;33.46;100878.09;4912103;29;19915;-75
2022/05/17 11:38:52;;;;;;;;;;;;;;;28.67;33.13;100883.91;4911507;29;19915;-75
2022/05/17 11:41:36;;;;;;;;;;;;;;;28.58;35.36;100878.13;4924166;29;19919;-76
2022/05/17 11:44:26;;;;;;;;;;;;;;;28.81;32.29;100877.22;4917272;29;19915;-75
2022/05/17 11:47:25;;;;;;;;;;;;;;;29.05;31.35;100877.84;4925428;29;19915;-75
2022/05/17 11:50:13;;;;;;;;;;;;;;;29.18;30.11;100873.09;4918455;29;19915;-77
2022/05/17 11:53:17;;;;;;;;;;;;;;;29.45;28.82;100868.03;4916323;29;20297;-75
2022/05/17 11:56:12;;;;;;;;;;;;;;;29.69;28.74;100868.56;4914050;29;19915;-75
2022/05/17 11:59:20;;;;;;;;;;;;;;;29.81;28.45;100867.06;4926326;29;20369;-75
2022/05/17 12:02:10;;;;;;;;;;;;;;;29.96;26.91;100865.44;4921410;29;20369;-75
2022/05/17 12:04:54;;;;;;;;;;;;;;;29.90;27.79;100861.59;4917372;29;19915;-75
2022/05/17 12:07:39;;;;;;;;;;;;;;;30.10;26.51;100853.81;4899564;29;19919;-74
2022/05/17 12:10:24;;;;;;;;;;;;;;;30.13;27.53;100855.72;4911146;29;19916;-75
2022/05/17 12:13:11;;;;;;;;;;;;;;;30.08;29.39;100851.44;4905826;29;19915;-74
2022/05/17 12:15:55;;;;;;;;;;;;;;;30.09;30.21;100843.81;4898095;29;19915;-76
2022/05/17 12:18:50;;;;;;;;;;;;;;;29.75;32.15;100844.38;4917791;29;19915;-75
2022/05/17 12:21:41;;;;;;;;;;;;;;;29.89;30.42;100843.16;4928714;29;19927;-75
2022/05/17 12:24:26;;;;;;;;;;;;;;;29.77;31.59;100841.91;4919833;29;19915;-75
2022/05/17 12:27:15;;;;;;;;;;;;;;;29.60;31.32;100844.00;4912807;29;19915;-75
2022/05/17 12:33:10;;;;;;;;;;;;;;;29.97;29.72;100831.31;4921837;29;19915;-75
2022/05/17 12:36:09;;;;;;;;;;;;;;;30.06;28.40;100834.28;4926462;29;19915;-74
2022/05/17 12:45:18;;;;;;;;;;;;;;;30.04;28.10;100821.91;4901583;29;19915;-75
2022/05/17 12:48:10;;;;;;;;;;;;;;;30.28;28.47;100814.75;4911940;29;19915;-74
2022/05/17 12:50:58;;;;;;;;;;;;;;;30.06;29.89;100817.44;4920622;29;19918;-75
2022/05/17 12:53:49;;;;;;;;;;;;;;;30.05;28.76;100817.88;4932337;29;19915;-74
2022/05/17 12:56:34;;;;;;;;;;;;;;;30.14;28.25;100812.41;4916618;29;19915;-74
2022/05/17 12:59:27;;;;;;;;;;;;;;;30.43;27.39;100809.47;4929711;29;20091;-76
2022/05/17 13:02:19;;;;;;;;;;;;;;;30.18;28.06;100815.88;4916652;29;19922;-75
2022/05/17 13:05:21;;;;;;;;;;;;;;;30.16;27.20;100809.94;4916333;29;19919;-75
2022/05/17 13:08:06;;;;;;;;;;;;;;;30.23;28.17;100809.72;4932200;29;19915;-74
2022/05/17 13:10:59;;;;;;;;;;;;;;;30.38;27.18;100804.44;4915715;29;19915;-76
2022/05/17 13:13:45;;;;;;;;;;;;;;;30.51;27.68;100792.00;5005369;23;19931;-79
2022/05/17 13:16:33;;;;;;;;;;;;;;;30.62;27.38;100796.50;4966037;28;19918;-79
2022/05/17 13:19:19;;;;;;;;;;;;;;;30.44;28.30;100797.81;4965321;28;19914;-79
2022/05/17 13:21:52;;;;;;;;;;;;;;;30.36;28.50;100795.69;4908354;23;19934;-79
2022/05/17 13:24:44;;;;;;;;;;;;;;;30.42;26.83;100793.91;4920845;29;19919;-78
2022/05/17 13:27:28;;;;;;;;;;;;;;;30.39;27.56;100792.75;4910834;29;19916;-78
2022/05/17 13:30:29;;;;;;;;;;;;;;;30.24;26.85;100791.63;4897314;29;19919;-79
2022/05/17 13:33:29;;;;;;;;;;;;;;;30.34;26.02;100786.94;4907195;29;20301;-80
2022/05/17 13:36:15;;;;;;;;;;;;;;;30.57;26.62;100772.59;4890859;29;19915;-79
2022/05/17 13:39:01;;;;;;;;;;;;;;;30.58;27.01;100777.72;4897710;29;19915;-78
2022/05/17 13:41:45;;;;;;;;;;;;;;;30.17;30.88;100780.66;4911762;29;20378;-80
2022/05/17 13:44:32;;;;;;;;;;;;;;;30.00;31.92;100779.97;4896599;29;19916;-78
2022/05/17 13:47:21;;;;;;;;;;;;;;;29.98;30.99;100776.00;4900398;29;19915;-78
2022/05/17 13:50:11;;;;;;;;;;;;;;;30.09;29.51;100782.09;4911960;29;19916;-78
2022/05/17 13:52:59;;;;;;;;;;;;;;;30.12;29.31;100770.75;4908321;29;19915;-80
2022/05/17 13:55:44;;;;;;;;;;;;;;;30.18;28.95;100768.19;4899230;29;19915;-78
2022/05/17 13:58:29;;;;;;;;;;;;;;;30.21;28.85;100758.09;4913131;29;19915;-80
2022/05/17 14:01:17;;;;;;;;;;;;;;;30.19;29.23;100755.72;4909431;29;19915;-80
2022/05/17 14:04:23;;;;;;;;;;;;;;;30.03;31.05;100762.22;4896648;29;20291;-78
2022/05/17 14:07:23;;;;;;;;;;;;;;;30.01;30.64;100759.09;4910004;29;20313;-78
2022/05/17 14:13:14;;;;;;;;;;;;;;;29.73;31.11;100755.09;4895118;29;19915;-78
2022/05/17 14:16:02;;;;;;;;;;;;;;;29.90;28.98;100758.63;4903915;29;19915;-80
2022/05/17 14:18:47;;;;;;;;;;;;;;;29.96;29.16;100750.44;4911049;29;19915;-78
2022/05/17 14:21:33;;;;;;;;;;;;;;;30.14;28.60;100750.69;4895715;29;19915;-80
2022/05/17 14:24:18;;;;;;;;;;;;;;;30.07;29.37;100750.91;4895189;29;19915;-80
2022/05/17 14:27:04;;;;;;;;;;;;;;;30.01;28.82;100747.09;4905164;29;19926;-80
2022/05/17 14:29:49;;;;;;;;;;;;;;;30.03;29.41;100745.41;4897373;29;19923;-79
2022/05/17 14:32:33;;;;;;;;;;;;;;;30.07;28.37;100734.84;4894686;29;20757;-77
2022/05/17 14:35:20;;;;;;;;;;;;;;;30.10;28.60;100735.97;4894803;29;19915;-78
2022/05/17 14:38:07;;;;;;;;;;;;;;;30.04;29.18;100724.53;4912866;29;19916;-78
2022/05/17 14:40:51;;;;;;;;;;;;;;;29.94;29.81;100731.25;4895457;29;19916;-79
2022/05/17 14:43:36;;;;;;;;;;;;;;;29.96;29.33;100726.00;4910739;29;19920;-77
2022/05/17 14:46:20;;;;;;;;;;;;;;;29.80;30.67;100725.28;4897224;29;19916;-80